sensor_id;sensor_type;location;lat;lon;timestamp;temperature;humidity
1976;DHT22;988;48.016;7.800;2023-03-23T00:02:05;17.90;52.80
1976;DHT22;988;48.016;7.800;2023-03-23T00:04:31;18.30;52.70
1976;DHT22;988;48.016;7.800;2023-03-23T00:06:56;17.90;53.20
1976;DHT22;988;48.016;7.800;2023-03-23T00:09:22;17.90;52.90
1976;DHT22;988;48.016;7.800;2023-03-23T00:11:50;17.80;53.20
1976;DHT22;988;48.016;7.800;2023-03-23T00:14:17;18.20;53.20
1976;DHT22;988;48.016;7.800;2023-03-23T00:16:48;18.40;52.50
1976;DHT22;988;48.016;7.800;2023-03-23T00:19:16;18.60;53.00
1976;DHT22;988;48.016;7.800;2023-03-23T00:21:42;18.60;53.10
1976;DHT22;988;48.016;7.800;2023-03-23T00:24:14;18.30;53.00
1976;DHT22;988;48.016;7.800;2023-03-23T00:26:42;18.90;54.50
1976;DHT22;988;48.016;7.800;2023-03-23T00:29:19;17.70;53.50
1976;DHT22;988;48.016;7.800;2023-03-23T00:31:47;17.20;55.40
1976;DHT22;988;48.016;7.800;2023-03-23T00:34:19;17.30;55.20
1976;DHT22;988;48.016;7.800;2023-03-23T00:36:49;17.20;54.50
1976;DHT22;988;48.016;7.800;2023-03-23T00:39:16;17.40;55.10
1976;DHT22;988;48.016;7.800;2023-03-23T00:41:43;17.30;55.90
1976;DHT22;988;48.016;7.800;2023-03-23T00:44:09;17.50;54.90
1976;DHT22;988;48.016;7.800;2023-03-23T00:46:34;17.80;54.40
1976;DHT22;988;48.016;7.800;2023-03-23T00:49:12;17.80;54.40
1976;DHT22;988;48.016;7.800;2023-03-23T00:51:38;17.80;54.10
1976;DHT22;988;48.016;7.800;2023-03-23T00:54:04;17.20;55.00
1976;DHT22;988;48.016;7.800;2023-03-23T00:56:30;17.50;55.00
1976;DHT22;988;48.016;7.800;2023-03-23T00:58:56;17.60;54.60
1976;DHT22;988;48.016;7.800;2023-03-23T01:01:21;17.50;54.80
1976;DHT22;988;48.016;7.800;2023-03-23T01:03:47;17.30;55.60
1976;DHT22;988;48.016;7.800;2023-03-23T01:06:13;17.00;56.20
1976;DHT22;988;48.016;7.800;2023-03-23T01:08:42;16.80;56.90
1976;DHT22;988;48.016;7.800;2023-03-23T01:11:15;17.00;56.80
1976;DHT22;988;48.016;7.800;2023-03-23T01:13:42;16.60;57.50
1976;DHT22;988;48.016;7.800;2023-03-23T01:16:09;16.60;57.70
1976;DHT22;988;48.016;7.800;2023-03-23T01:18:36;16.90;57.90
1976;DHT22;988;48.016;7.800;2023-03-23T01:21:06;16.70;57.30
1976;DHT22;988;48.016;7.800;2023-03-23T01:23:33;16.60;58.00
1976;DHT22;988;48.016;7.800;2023-03-23T01:26:06;16.70;58.20
1976;DHT22;988;48.016;7.800;2023-03-23T01:28:33;16.80;57.70
1976;DHT22;988;48.016;7.800;2023-03-23T01:31:09;16.70;58.00
1976;DHT22;988;48.016;7.800;2023-03-23T01:33:37;16.90;57.50
1976;DHT22;988;48.016;7.800;2023-03-23T01:36:05;17.10;57.30
1976;DHT22;988;48.016;7.800;2023-03-23T01:38:32;17.60;56.40
1976;DHT22;988;48.016;7.800;2023-03-23T01:40:58;17.70;56.00
1976;DHT22;988;48.016;7.800;2023-03-23T01:43:24;17.00;56.80
1976;DHT22;988;48.016;7.800;2023-03-23T01:45:50;16.80;56.80
1976;DHT22;988;48.016;7.800;2023-03-23T01:50:59;17.10;56.20
1976;DHT22;988;48.016;7.800;2023-03-23T01:54:12;17.00;55.80
1976;DHT22;988;48.016;7.800;2023-03-23T01:56:20;16.80;56.30
1976;DHT22;988;48.016;7.800;2023-03-23T01:58:51;16.80;56.30
1976;DHT22;988;48.016;7.800;2023-03-23T02:01:17;16.70;56.70
1976;DHT22;988;48.016;7.800;2023-03-23T02:03:45;16.80;56.50
1976;DHT22;988;48.016;7.800;2023-03-23T02:06:12;16.70;56.60
1976;DHT22;988;48.016;7.800;2023-03-23T02:08:38;17.00;56.00
1976;DHT22;988;48.016;7.800;2023-03-23T02:11:16;16.90;56.00
1976;DHT22;988;48.016;7.800;2023-03-23T02:13:42;16.90;55.70
1976;DHT22;988;48.016;7.800;2023-03-23T02:16:23;16.70;56.10
1976;DHT22;988;48.016;7.800;2023-03-23T02:30:56;16.80;55.40
1976;DHT22;988;48.016;7.800;2023-03-23T02:33:58;17.00;54.60
1976;DHT22;988;48.016;7.800;2023-03-23T02:36:44;16.90;54.80
1976;DHT22;988;48.016;7.800;2023-03-23T02:39:26;17.00;54.70
1976;DHT22;988;48.016;7.800;2023-03-23T02:42:00;17.20;54.20
1976;DHT22;988;48.016;7.800;2023-03-23T02:44:29;17.30;54.00
1976;DHT22;988;48.016;7.800;2023-03-23T02:46:57;17.10;54.20
1976;DHT22;988;48.016;7.800;2023-03-23T02:49:25;17.20;54.00
1976;DHT22;988;48.016;7.800;2023-03-23T02:51:52;17.10;54.20
1976;DHT22;988;48.016;7.800;2023-03-23T02:54:20;17.30;54.30
1976;DHT22;988;48.016;7.800;2023-03-23T02:56:48;17.10;53.90
1976;DHT22;988;48.016;7.800;2023-03-23T02:59:16;17.40;54.00
1976;DHT22;988;48.016;7.800;2023-03-23T03:04:11;17.10;54.20
1976;DHT22;988;48.016;7.800;2023-03-23T03:09:55;17.30;53.90
1976;DHT22;988;48.016;7.800;2023-03-23T03:18:05;17.10;53.60
1976;DHT22;988;48.016;7.800;2023-03-23T03:20:36;17.30;53.40
1976;DHT22;988;48.016;7.800;2023-03-23T03:23:04;17.40;52.60
1976;DHT22;988;48.016;7.800;2023-03-23T03:25:33;17.60;53.00
1976;DHT22;988;48.016;7.800;2023-03-23T03:27:59;17.40;52.70
1976;DHT22;988;48.016;7.800;2023-03-23T03:30:28;17.30;52.90
1976;DHT22;988;48.016;7.800;2023-03-23T03:32:57;17.30;52.50
1976;DHT22;988;48.016;7.800;2023-03-23T03:35:25;17.50;52.70
1976;DHT22;988;48.016;7.800;2023-03-23T03:37:52;17.70;52.00
1976;DHT22;988;48.016;7.800;2023-03-23T03:40:21;17.60;52.40
1976;DHT22;988;48.016;7.800;2023-03-23T03:42:47;17.70;52.00
1976;DHT22;988;48.016;7.800;2023-03-23T03:45:15;17.80;52.00
1976;DHT22;988;48.016;7.800;2023-03-23T03:47:41;17.60;52.30
1976;DHT22;988;48.016;7.800;2023-03-23T03:50:08;17.40;52.70
1976;DHT22;988;48.016;7.800;2023-03-23T03:52:34;17.30;53.00
1976;DHT22;988;48.016;7.800;2023-03-23T03:54:59;17.50;52.80
1976;DHT22;988;48.016;7.800;2023-03-23T03:57:25;17.50;52.20
1976;DHT22;988;48.016;7.800;2023-03-23T03:59:51;17.50;52.40
1976;DHT22;988;48.016;7.800;2023-03-23T04:02:18;17.50;52.70
1976;DHT22;988;48.016;7.800;2023-03-23T04:04:49;17.30;53.20
1976;DHT22;988;48.016;7.800;2023-03-23T04:07:15;17.40;52.90
1976;DHT22;988;48.016;7.800;2023-03-23T04:09:44;17.50;52.90
1976;DHT22;988;48.016;7.800;2023-03-23T04:12:12;17.40;53.40
1976;DHT22;988;48.016;7.800;2023-03-23T04:14:38;17.60;52.60
1976;DHT22;988;48.016;7.800;2023-03-23T04:17:03;17.90;52.10
1976;DHT22;988;48.016;7.800;2023-03-23T04:19:29;17.70;52.60
1976;DHT22;988;48.016;7.800;2023-03-23T04:21:59;18.00;51.60
1976;DHT22;988;48.016;7.800;2023-03-23T04:24:25;17.80;52.30
1976;DHT22;988;48.016;7.800;2023-03-23T04:26:51;17.50;53.00
1976;DHT22;988;48.016;7.800;2023-03-23T04:29:20;17.80;53.20
1976;DHT22;988;48.016;7.800;2023-03-23T04:31:45;18.00;51.90
1976;DHT22;988;48.016;7.800;2023-03-23T04:34:11;18.00;52.30
1976;DHT22;988;48.016;7.800;2023-03-23T04:36:40;17.50;52.90
1976;DHT22;988;48.016;7.800;2023-03-23T04:39:06;17.50;53.40
1976;DHT22;988;48.016;7.800;2023-03-23T04:41:38;17.50;53.00
1976;DHT22;988;48.016;7.800;2023-03-23T04:44:05;17.30;53.70
1976;DHT22;988;48.016;7.800;2023-03-23T04:46:31;17.30;53.70
1976;DHT22;988;48.016;7.800;2023-03-23T04:48:58;17.20;54.00
1976;DHT22;988;48.016;7.800;2023-03-23T04:51:28;17.30;54.30
1976;DHT22;988;48.016;7.800;2023-03-23T04:53:54;17.10;54.40
1976;DHT22;988;48.016;7.800;2023-03-23T04:56:20;17.10;55.10
1976;DHT22;988;48.016;7.800;2023-03-23T04:58:46;17.40;54.30
1976;DHT22;988;48.016;7.800;2023-03-23T05:01:13;17.30;54.80
1976;DHT22;988;48.016;7.800;2023-03-23T05:03:43;17.30;54.40
1976;DHT22;988;48.016;7.800;2023-03-23T05:06:09;17.00;56.10
1976;DHT22;988;48.016;7.800;2023-03-23T05:08:35;17.00;55.50
1976;DHT22;988;48.016;7.800;2023-03-23T05:11:04;17.10;55.20
1976;DHT22;988;48.016;7.800;2023-03-23T05:13:31;17.10;55.90
1976;DHT22;988;48.016;7.800;2023-03-23T05:15:57;16.90;56.00
1976;DHT22;988;48.016;7.800;2023-03-23T05:18:22;16.70;56.50
1976;DHT22;988;48.016;7.800;2023-03-23T05:20:48;16.90;56.40
1976;DHT22;988;48.016;7.800;2023-03-23T05:23:14;17.10;56.00
1976;DHT22;988;48.016;7.800;2023-03-23T05:25:40;17.20;55.90
1976;DHT22;988;48.016;7.800;2023-03-23T05:28:10;17.40;55.70
1976;DHT22;988;48.016;7.800;2023-03-23T05:30:37;17.30;55.40
1976;DHT22;988;48.016;7.800;2023-03-23T05:33:04;17.30;55.70
1976;DHT22;988;48.016;7.800;2023-03-23T05:35:30;17.30;55.50
1976;DHT22;988;48.016;7.800;2023-03-23T05:37:56;17.10;56.10
1976;DHT22;988;48.016;7.800;2023-03-23T05:40:22;17.20;55.70
1976;DHT22;988;48.016;7.800;2023-03-23T05:42:48;17.10;56.10
1976;DHT22;988;48.016;7.800;2023-03-23T05:45:14;17.00;56.80
1976;DHT22;988;48.016;7.800;2023-03-23T05:47:40;17.00;56.70
1976;DHT22;988;48.016;7.800;2023-03-23T05:50:08;17.10;57.00
1976;DHT22;988;48.016;7.800;2023-03-23T05:52:38;17.00;57.00
1976;DHT22;988;48.016;7.800;2023-03-23T05:55:04;17.10;56.80
1976;DHT22;988;48.016;7.800;2023-03-23T05:57:30;17.10;56.90
1976;DHT22;988;48.016;7.800;2023-03-23T05:59:56;17.10;56.80
1976;DHT22;988;48.016;7.800;2023-03-23T06:02:23;17.10;57.20
1976;DHT22;988;48.016;7.800;2023-03-23T06:04:49;16.60;58.00
1976;DHT22;988;48.016;7.800;2023-03-23T06:07:15;16.50;58.60
1976;DHT22;988;48.016;7.800;2023-03-23T06:09:41;16.30;58.50
1976;DHT22;988;48.016;7.800;2023-03-23T06:12:07;16.40;59.00
1976;DHT22;988;48.016;7.800;2023-03-23T06:14:33;16.40;59.10
1976;DHT22;988;48.016;7.800;2023-03-23T06:16:58;16.30;58.90
1976;DHT22;988;48.016;7.800;2023-03-23T06:19:24;16.40;58.90
1976;DHT22;988;48.016;7.800;2023-03-23T06:21:53;16.50;59.40
1976;DHT22;988;48.016;7.800;2023-03-23T06:24:19;16.40;59.10
1976;DHT22;988;48.016;7.800;2023-03-23T06:26:46;16.50;59.50
1976;DHT22;988;48.016;7.800;2023-03-23T06:29:13;16.40;59.20
1976;DHT22;988;48.016;7.800;2023-03-23T06:31:44;16.50;59.30
1976;DHT22;988;48.016;7.800;2023-03-23T06:34:11;16.70;58.80
1976;DHT22;988;48.016;7.800;2023-03-23T06:36:37;16.30;59.90
1976;DHT22;988;48.016;7.800;2023-03-23T06:39:04;16.50;59.40
1976;DHT22;988;48.016;7.800;2023-03-23T06:41:31;16.60;59.10
1976;DHT22;988;48.016;7.800;2023-03-23T06:43:57;16.80;59.20
1976;DHT22;988;48.016;7.800;2023-03-23T06:46:22;17.10;58.00
1976;DHT22;988;48.016;7.800;2023-03-23T06:48:48;17.20;58.20
1976;DHT22;988;48.016;7.800;2023-03-23T06:51:15;17.20;58.30
1976;DHT22;988;48.016;7.800;2023-03-23T06:53:41;16.80;59.10
1976;DHT22;988;48.016;7.800;2023-03-23T06:56:07;17.00;58.70
1976;DHT22;988;48.016;7.800;2023-03-23T06:58:32;16.90;59.30
1976;DHT22;988;48.016;7.800;2023-03-23T07:00:58;16.80;59.50
1976;DHT22;988;48.016;7.800;2023-03-23T07:03:24;16.80;59.10
1976;DHT22;988;48.016;7.800;2023-03-23T07:05:51;16.70;59.40
1976;DHT22;988;48.016;7.800;2023-03-23T07:08:17;16.40;59.80
1976;DHT22;988;48.016;7.800;2023-03-23T07:10:42;16.30;60.80
1976;DHT22;988;48.016;7.800;2023-03-23T07:13:09;16.20;60.20
1976;DHT22;988;48.016;7.800;2023-03-23T07:15:34;16.10;60.80
1976;DHT22;988;48.016;7.800;2023-03-23T07:18:00;16.30;60.40
1976;DHT22;988;48.016;7.800;2023-03-23T07:20:25;16.40;60.10
1976;DHT22;988;48.016;7.800;2023-03-23T07:22:53;16.60;60.60
1976;DHT22;988;48.016;7.800;2023-03-23T07:25:19;16.50;61.20
1976;DHT22;988;48.016;7.800;2023-03-23T07:27:45;17.00;60.90
1976;DHT22;988;48.016;7.800;2023-03-23T07:30:12;16.50;61.90
1976;DHT22;988;48.016;7.800;2023-03-23T07:32:38;16.50;62.70
1976;DHT22;988;48.016;7.800;2023-03-23T07:35:03;16.60;64.80
1976;DHT22;988;48.016;7.800;2023-03-23T07:37:29;16.70;64.20
1976;DHT22;988;48.016;7.800;2023-03-23T07:39:55;16.80;64.90
1976;DHT22;988;48.016;7.800;2023-03-23T07:42:20;16.10;66.00
1976;DHT22;988;48.016;7.800;2023-03-23T07:44:46;16.00;67.20
1976;DHT22;988;48.016;7.800;2023-03-23T07:47:12;15.70;66.90
1976;DHT22;988;48.016;7.800;2023-03-23T07:49:37;15.90;68.40
1976;DHT22;988;48.016;7.800;2023-03-23T07:52:03;15.80;69.60
1976;DHT22;988;48.016;7.800;2023-03-23T07:54:29;15.40;70.90
1976;DHT22;988;48.016;7.800;2023-03-23T07:56:54;15.60;71.20
1976;DHT22;988;48.016;7.800;2023-03-23T07:59:20;16.20;70.00
1976;DHT22;988;48.016;7.800;2023-03-23T08:01:46;15.60;71.80
1976;DHT22;988;48.016;7.800;2023-03-23T08:04:12;15.40;73.10
1976;DHT22;988;48.016;7.800;2023-03-23T08:06:39;15.50;73.40
1976;DHT22;988;48.016;7.800;2023-03-23T08:09:05;15.50;72.00
1976;DHT22;988;48.016;7.800;2023-03-23T08:11:34;15.90;71.50
1976;DHT22;988;48.016;7.800;2023-03-23T08:14:01;15.60;72.00
1976;DHT22;988;48.016;7.800;2023-03-23T08:16:26;15.50;74.10
1976;DHT22;988;48.016;7.800;2023-03-23T08:18:52;15.50;74.80
1976;DHT22;988;48.016;7.800;2023-03-23T08:21:18;15.60;77.20
1976;DHT22;988;48.016;7.800;2023-03-23T08:23:44;15.50;78.00
1976;DHT22;988;48.016;7.800;2023-03-23T08:26:10;14.80;82.50
1976;DHT22;988;48.016;7.800;2023-03-23T08:28:36;15.00;85.10
1976;DHT22;988;48.016;7.800;2023-03-23T08:31:13;15.20;83.30
1976;DHT22;988;48.016;7.800;2023-03-23T08:33:40;15.30;83.10
1976;DHT22;988;48.016;7.800;2023-03-23T08:36:07;15.70;82.30
1976;DHT22;988;48.016;7.800;2023-03-23T08:38:34;15.80;81.30
1976;DHT22;988;48.016;7.800;2023-03-23T08:41:02;16.00;78.80
1976;DHT22;988;48.016;7.800;2023-03-23T08:43:29;16.30;81.80
1976;DHT22;988;48.016;7.800;2023-03-23T08:45:55;17.30;77.50
1976;DHT22;988;48.016;7.800;2023-03-23T08:48:21;17.50;74.30
1976;DHT22;988;48.016;7.800;2023-03-23T08:50:49;17.80;73.50
1976;DHT22;988;48.016;7.800;2023-03-23T08:53:15;17.60;74.60
1976;DHT22;988;48.016;7.800;2023-03-23T08:55:41;17.80;74.60
1976;DHT22;988;48.016;7.800;2023-03-23T08:58:07;17.50;73.40
1976;DHT22;988;48.016;7.800;2023-03-23T09:00:32;17.10;73.90
1976;DHT22;988;48.016;7.800;2023-03-23T09:02:58;16.60;76.20
1976;DHT22;988;48.016;7.800;2023-03-23T09:05:26;17.20;74.30
1976;DHT22;988;48.016;7.800;2023-03-23T09:07:54;17.50;73.60
1976;DHT22;988;48.016;7.800;2023-03-23T09:10:21;17.50;71.20
1976;DHT22;988;48.016;7.800;2023-03-23T09:12:47;17.10;71.00
1976;DHT22;988;48.016;7.800;2023-03-23T09:15:15;17.70;71.30
1976;DHT22;988;48.016;7.800;2023-03-23T09:17:44;18.40;69.40
1976;DHT22;988;48.016;7.800;2023-03-23T09:20:11;18.20;68.30
1976;DHT22;988;48.016;7.800;2023-03-23T09:22:43;18.30;68.30
1976;DHT22;988;48.016;7.800;2023-03-23T09:25:11;18.50;66.20
1976;DHT22;988;48.016;7.800;2023-03-23T09:27:37;18.10;67.20
1976;DHT22;988;48.016;7.800;2023-03-23T09:30:10;18.00;67.40
1976;DHT22;988;48.016;7.800;2023-03-23T09:32:36;18.40;66.70
1976;DHT22;988;48.016;7.800;2023-03-23T09:35:04;18.60;64.00
1976;DHT22;988;48.016;7.800;2023-03-23T09:37:31;19.60;62.50
1976;DHT22;988;48.016;7.800;2023-03-23T09:39:58;19.90;60.80
1976;DHT22;988;48.016;7.800;2023-03-23T09:42:36;19.50;60.60
1976;DHT22;988;48.016;7.800;2023-03-23T09:45:28;19.00;60.70
1976;DHT22;988;48.016;7.800;2023-03-23T09:50:49;19.00;61.20
1976;DHT22;988;48.016;7.800;2023-03-23T09:53:24;19.20;61.40
1976;DHT22;988;48.016;7.800;2023-03-23T09:55:52;19.00;60.30
1976;DHT22;988;48.016;7.800;2023-03-23T09:58:35;18.70;61.40
1976;DHT22;988;48.016;7.800;2023-03-23T10:01:07;18.90;61.90
1976;DHT22;988;48.016;7.800;2023-03-23T10:03:40;18.30;60.20
1976;DHT22;988;48.016;7.800;2023-03-23T10:06:12;18.40;61.60
1976;DHT22;988;48.016;7.800;2023-03-23T10:08:43;18.70;60.10
1976;DHT22;988;48.016;7.800;2023-03-23T10:11:45;19.10;58.60
1976;DHT22;988;48.016;7.800;2023-03-23T10:17:13;18.80;59.20
1976;DHT22;988;48.016;7.800;2023-03-23T10:20:01;18.60;59.50
1976;DHT22;988;48.016;7.800;2023-03-23T10:22:38;18.60;59.30
1976;DHT22;988;48.016;7.800;2023-03-23T10:27:43;19.10;58.40
1976;DHT22;988;48.016;7.800;2023-03-23T10:30:29;20.20;57.20
1976;DHT22;988;48.016;7.800;2023-03-23T10:35:57;22.10;54.30
1976;DHT22;988;48.016;7.800;2023-03-23T10:38:33;23.70;53.10
1976;DHT22;988;48.016;7.800;2023-03-23T10:41:04;24.00;50.00
1976;DHT22;988;48.016;7.800;2023-03-23T10:43:30;23.70;51.00
1976;DHT22;988;48.016;7.800;2023-03-23T10:46:03;22.00;52.10
1976;DHT22;988;48.016;7.800;2023-03-23T10:48:35;20.60;55.10
1976;DHT22;988;48.016;7.800;2023-03-23T10:51:04;19.80;57.00
1976;DHT22;988;48.016;7.800;2023-03-23T10:53:36;19.70;57.80
1976;DHT22;988;48.016;7.800;2023-03-23T10:56:04;19.50;57.30
1976;DHT22;988;48.016;7.800;2023-03-23T10:58:34;19.40;57.40
1976;DHT22;988;48.016;7.800;2023-03-23T11:01:03;20.10;57.50
1976;DHT22;988;48.016;7.800;2023-03-23T11:05:59;19.60;57.70
1976;DHT22;988;48.016;7.800;2023-03-23T11:08:28;19.60;57.70
1976;DHT22;988;48.016;7.800;2023-03-23T11:10:58;19.20;57.60
1976;DHT22;988;48.016;7.800;2023-03-23T11:13:30;19.10;58.10
1976;DHT22;988;48.016;7.800;2023-03-23T11:15:57;19.30;58.90
1976;DHT22;988;48.016;7.800;2023-03-23T11:18:36;19.30;58.10
1976;DHT22;988;48.016;7.800;2023-03-23T11:21:03;19.50;57.70
1976;DHT22;988;48.016;7.800;2023-03-23T11:23:36;20.00;57.80
1976;DHT22;988;48.016;7.800;2023-03-23T11:31:30;19.00;59.50
1976;DHT22;988;48.016;7.800;2023-03-23T11:34:10;19.30;58.90
1976;DHT22;988;48.016;7.800;2023-03-23T11:36:41;19.60;58.00
1976;DHT22;988;48.016;7.800;2023-03-23T11:39:26;19.20;59.70
1976;DHT22;988;48.016;7.800;2023-03-23T11:41:54;19.60;59.10
1976;DHT22;988;48.016;7.800;2023-03-23T11:44:22;19.90;58.20
1976;DHT22;988;48.016;7.800;2023-03-23T11:47:04;19.80;58.30
1976;DHT22;988;48.016;7.800;2023-03-23T11:49:50;20.10;58.10
1976;DHT22;988;48.016;7.800;2023-03-23T11:57:37;20.10;55.90
1976;DHT22;988;48.016;7.800;2023-03-23T12:00:20;20.20;56.70
1976;DHT22;988;48.016;7.800;2023-03-23T12:06:16;19.50;57.00
1976;DHT22;988;48.016;7.800;2023-03-23T12:30:23;20.10;55.10
1976;DHT22;988;48.016;7.800;2023-03-23T12:41:12;20.10;56.10
1976;DHT22;988;48.016;7.800;2023-03-23T12:43:59;19.90;56.20
1976;DHT22;988;48.016;7.800;2023-03-23T12:55:04;19.00;58.20
1976;DHT22;988;48.016;7.800;2023-03-23T12:57:45;18.90;58.50
1976;DHT22;988;48.016;7.800;2023-03-23T13:00:23;18.80;58.70
1976;DHT22;988;48.016;7.800;2023-03-23T13:05:53;18.70;59.10
1976;DHT22;988;48.016;7.800;2023-03-23T13:08:44;19.10;59.50
1976;DHT22;988;48.016;7.800;2023-03-23T13:11:36;19.20;58.70
1976;DHT22;988;48.016;7.800;2023-03-23T13:24:21;18.70;57.70
1976;DHT22;988;48.016;7.800;2023-03-23T13:26:50;18.40;57.60
1976;DHT22;988;48.016;7.800;2023-03-23T13:29:20;18.40;59.00
1976;DHT22;988;48.016;7.800;2023-03-23T13:31:50;18.40;58.50
1976;DHT22;988;48.016;7.800;2023-03-23T13:34:23;18.40;57.90
1976;DHT22;988;48.016;7.800;2023-03-23T13:37:03;18.40;57.80
1976;DHT22;988;48.016;7.800;2023-03-23T13:39:33;18.40;57.20
1976;DHT22;988;48.016;7.800;2023-03-23T13:42:04;18.50;57.00
1976;DHT22;988;48.016;7.800;2023-03-23T13:47:44;18.40;57.50
1976;DHT22;988;48.016;7.800;2023-03-23T13:50:12;18.70;56.80
1976;DHT22;988;48.016;7.800;2023-03-23T14:00:46;18.20;57.20
1976;DHT22;988;48.016;7.800;2023-03-23T14:03:13;18.20;57.60
1976;DHT22;988;48.016;7.800;2023-03-23T14:05:42;18.10;57.30
1976;DHT22;988;48.016;7.800;2023-03-23T14:10:40;18.30;57.30
1976;DHT22;988;48.016;7.800;2023-03-23T14:16:03;18.30;57.90
1976;DHT22;988;48.016;7.800;2023-03-23T14:18:40;18.40;57.70
1976;DHT22;988;48.016;7.800;2023-03-23T14:21:14;18.50;57.70
1976;DHT22;988;48.016;7.800;2023-03-23T14:23:40;18.20;57.30
1976;DHT22;988;48.016;7.800;2023-03-23T14:26:16;17.90;58.10
1976;DHT22;988;48.016;7.800;2023-03-23T14:28:45;18.20;57.70
1976;DHT22;988;48.016;7.800;2023-03-23T14:31:25;18.30;57.60
1976;DHT22;988;48.016;7.800;2023-03-23T14:33:52;18.30;57.40
1976;DHT22;988;48.016;7.800;2023-03-23T14:36:28;18.00;57.50
1976;DHT22;988;48.016;7.800;2023-03-23T14:39:03;18.50;57.30
1976;DHT22;988;48.016;7.800;2023-03-23T14:41:31;18.40;57.20
1976;DHT22;988;48.016;7.800;2023-03-23T14:44:00;18.10;57.30
1976;DHT22;988;48.016;7.800;2023-03-23T14:46:27;18.30;57.60
1976;DHT22;988;48.016;7.800;2023-03-23T14:48:53;18.60;56.70
1976;DHT22;988;48.016;7.800;2023-03-23T14:51:20;18.30;57.10
1976;DHT22;988;48.016;7.800;2023-03-23T14:53:46;18.50;56.90
1976;DHT22;988;48.016;7.800;2023-03-23T14:56:18;18.80;56.90
1976;DHT22;988;48.016;7.800;2023-03-23T14:58:48;19.00;56.50
1976;DHT22;988;48.016;7.800;2023-03-23T15:01:28;19.00;55.80
1976;DHT22;988;48.016;7.800;2023-03-23T15:04:04;19.20;55.80
1976;DHT22;988;48.016;7.800;2023-03-23T15:06:34;20.00;54.50
1976;DHT22;988;48.016;7.800;2023-03-23T15:09:04;19.60;55.10
1976;DHT22;988;48.016;7.800;2023-03-23T15:11:33;19.30;55.20
1976;DHT22;988;48.016;7.800;2023-03-23T15:14:07;19.50;55.40
1976;DHT22;988;48.016;7.800;2023-03-23T15:16:34;19.80;54.40
1976;DHT22;988;48.016;7.800;2023-03-23T15:19:13;19.70;54.80
1976;DHT22;988;48.016;7.800;2023-03-23T15:22:07;20.20;54.80
1976;DHT22;988;48.016;7.800;2023-03-23T15:24:40;20.60;54.20
1976;DHT22;988;48.016;7.800;2023-03-23T15:29:32;20.50;53.70
1976;DHT22;988;48.016;7.800;2023-03-23T15:31:57;20.40;53.30
1976;DHT22;988;48.016;7.800;2023-03-23T15:34:34;20.30;54.30
1976;DHT22;988;48.016;7.800;2023-03-23T15:37:21;20.70;53.80
1976;DHT22;988;48.016;7.800;2023-03-23T15:39:47;21.00;52.90
1976;DHT22;988;48.016;7.800;2023-03-23T15:42:30;20.90;53.80
1976;DHT22;988;48.016;7.800;2023-03-23T15:52:37;20.60;53.60
1976;DHT22;988;48.016;7.800;2023-03-23T15:55:03;20.10;54.70
1976;DHT22;988;48.016;7.800;2023-03-23T15:57:29;20.30;54.20
1976;DHT22;988;48.016;7.800;2023-03-23T15:59:54;19.40;55.90
1976;DHT22;988;48.016;7.800;2023-03-23T16:02:24;19.10;56.00
1976;DHT22;988;48.016;7.800;2023-03-23T16:04:50;19.60;56.30
1976;DHT22;988;48.016;7.800;2023-03-23T16:07:19;19.50;55.50
1976;DHT22;988;48.016;7.800;2023-03-23T16:09:45;18.90;56.80
1976;DHT22;988;48.016;7.800;2023-03-23T16:12:11;19.00;56.60
1976;DHT22;988;48.016;7.800;2023-03-23T16:14:38;18.70;57.00
1976;DHT22;988;48.016;7.800;2023-03-23T16:17:04;18.30;58.40
1976;DHT22;988;48.016;7.800;2023-03-23T16:19:30;18.40;57.90
1976;DHT22;988;48.016;7.800;2023-03-23T16:21:56;18.40;58.60
1976;DHT22;988;48.016;7.800;2023-03-23T16:24:22;18.70;57.60
1976;DHT22;988;48.016;7.800;2023-03-23T16:26:47;18.80;57.50
1976;DHT22;988;48.016;7.800;2023-03-23T16:29:14;18.90;57.10
1976;DHT22;988;48.016;7.800;2023-03-23T16:31:40;18.70;58.00
1976;DHT22;988;48.016;7.800;2023-03-23T16:34:07;18.60;58.10
1976;DHT22;988;48.016;7.800;2023-03-23T16:36:33;18.30;58.70
1976;DHT22;988;48.016;7.800;2023-03-23T16:38:59;18.40;58.70
1976;DHT22;988;48.016;7.800;2023-03-23T16:41:25;18.50;58.20
1976;DHT22;988;48.016;7.800;2023-03-23T16:43:50;18.20;59.40
1976;DHT22;988;48.016;7.800;2023-03-23T16:46:16;18.40;58.90
1976;DHT22;988;48.016;7.800;2023-03-23T16:48:42;18.70;58.20
1976;DHT22;988;48.016;7.800;2023-03-23T16:51:08;18.60;58.10
1976;DHT22;988;48.016;7.800;2023-03-23T16:53:34;18.60;58.30
1976;DHT22;988;48.016;7.800;2023-03-23T16:56:00;18.50;58.40
1976;DHT22;988;48.016;7.800;2023-03-23T16:58:26;18.90;57.80
1976;DHT22;988;48.016;7.800;2023-03-23T17:00:52;19.00;58.20
1976;DHT22;988;48.016;7.800;2023-03-23T17:03:19;19.00;58.10
1976;DHT22;988;48.016;7.800;2023-03-23T17:05:47;18.70;58.30
1976;DHT22;988;48.016;7.800;2023-03-23T17:08:13;18.90;58.10
1976;DHT22;988;48.016;7.800;2023-03-23T17:10:40;19.20;57.20
1976;DHT22;988;48.016;7.800;2023-03-23T17:13:07;19.20;56.90
1976;DHT22;988;48.016;7.800;2023-03-23T17:15:38;18.70;58.10
1976;DHT22;988;48.016;7.800;2023-03-23T17:18:05;18.50;58.70
1976;DHT22;988;48.016;7.800;2023-03-23T17:20:31;18.70;58.10
1976;DHT22;988;48.016;7.800;2023-03-23T17:22:57;19.40;57.20
1976;DHT22;988;48.016;7.800;2023-03-23T17:25:24;20.00;55.80
1976;DHT22;988;48.016;7.800;2023-03-23T17:27:50;20.80;54.70
1976;DHT22;988;48.016;7.800;2023-03-23T17:30:16;21.20;54.50
1976;DHT22;988;48.016;7.800;2023-03-23T17:32:42;20.20;54.70
1976;DHT22;988;48.016;7.800;2023-03-23T17:35:07;19.10;56.70
1976;DHT22;988;48.016;7.800;2023-03-23T17:37:35;18.90;57.10
1976;DHT22;988;48.016;7.800;2023-03-23T17:40:02;19.20;56.50
1976;DHT22;988;48.016;7.800;2023-03-23T17:42:29;19.30;56.30
1976;DHT22;988;48.016;7.800;2023-03-23T17:44:54;19.60;55.80
1976;DHT22;988;48.016;7.800;2023-03-23T17:47:20;19.70;55.60
1976;DHT22;988;48.016;7.800;2023-03-23T17:49:46;19.60;55.70
1976;DHT22;988;48.016;7.800;2023-03-23T17:52:12;19.80;55.50
1976;DHT22;988;48.016;7.800;2023-03-23T17:54:38;19.80;55.70
1976;DHT22;988;48.016;7.800;2023-03-23T17:57:03;19.70;56.00
1976;DHT22;988;48.016;7.800;2023-03-23T17:59:29;19.90;55.20
1976;DHT22;988;48.016;7.800;2023-03-23T18:01:55;19.40;56.10
1976;DHT22;988;48.016;7.800;2023-03-23T18:04:21;19.70;55.80
1976;DHT22;988;48.016;7.800;2023-03-23T18:06:47;19.70;55.80
1976;DHT22;988;48.016;7.800;2023-03-23T18:09:13;19.50;56.10
1976;DHT22;988;48.016;7.800;2023-03-23T18:11:39;19.50;56.20
1976;DHT22;988;48.016;7.800;2023-03-23T18:14:04;19.10;56.30
1976;DHT22;988;48.016;7.800;2023-03-23T18:16:30;18.50;57.10
1976;DHT22;988;48.016;7.800;2023-03-23T18:18:56;18.30;57.90
1976;DHT22;988;48.016;7.800;2023-03-23T18:21:21;18.30;57.80
1976;DHT22;988;48.016;7.800;2023-03-23T18:23:50;18.70;57.00
1976;DHT22;988;48.016;7.800;2023-03-23T18:26:16;18.90;56.50
1976;DHT22;988;48.016;7.800;2023-03-23T18:28:43;19.70;55.80
1976;DHT22;988;48.016;7.800;2023-03-23T18:31:11;20.50;55.30
1976;DHT22;988;48.016;7.800;2023-03-23T18:33:38;20.80;53.50
1976;DHT22;988;48.016;7.800;2023-03-23T18:36:07;20.90;54.80
1976;DHT22;988;48.016;7.800;2023-03-23T18:38:34;20.60;53.40
1976;DHT22;988;48.016;7.800;2023-03-23T18:40:59;20.80;52.90